Thornton, Wisconsin
Current Conditions -  °F | °C
As of 11:35 PM on Sunday 21 Dec 2014 (Local Time) from KEZS Reporting Station
Overcast Overcast  
Wind Chill: 31°   Ceiling: 1600
Heat Index: 37°   Visibility: 7mi
Dew Point: 31°   Wind: 8mph
Humidity: 80%   Direction: 170°S
Pressure: 29.94"   Gusts: NA
Location:  44.7924°N, 88.6722°W
Report Text: KEZS 220535Z AUTO 17007KT 140V200 7SM OVC016 03/00 A2994 RMK AO2 T00261005
Loading
Personal Weather Stations






























Interactive Weather Map New forecast layout! Learn more

10-Day Weather Forecast

Advertisements
Track Severe Weather on mobile